createdAt,value
2023-06-04T00:00:12.376Z,10.00
2023-06-04T00:01:16.616Z,10.00
2023-06-04T00:02:19.443Z,10.00
2023-06-04T00:03:23.266Z,10.00
2023-06-04T00:04:26.784Z,10.00
2023-06-04T00:05:29.099Z,10.00
2023-06-04T00:06:31.841Z,10.00
2023-06-04T00:07:34.112Z,10.00
2023-06-04T00:08:36.545Z,9.90
2023-06-04T00:09:38.856Z,9.90
2023-06-04T00:10:41.749Z,9.90
2023-06-04T00:11:44.127Z,9.90
2023-06-04T00:12:46.749Z,9.90
2023-06-04T00:13:49.116Z,10.00
2023-06-04T00:14:51.380Z,9.90
2023-06-04T00:15:53.686Z,10.00
2023-06-04T00:16:56.259Z,9.90
2023-06-04T00:17:58.563Z,9.90
2023-06-04T00:19:02.199Z,9.90
2023-06-04T00:20:05.233Z,10.00
2023-06-04T00:21:07.752Z,9.90
2023-06-04T00:22:10.236Z,10.00
2023-06-04T00:23:12.463Z,9.90
2023-06-04T00:24:14.773Z,9.90
2023-06-04T00:25:17.238Z,9.90
2023-06-04T00:26:19.752Z,9.90
2023-06-04T00:27:22.070Z,9.90
2023-06-04T00:28:24.291Z,9.90
2023-06-04T00:29:26.593Z,9.90
2023-06-04T00:30:29.031Z,9.90
2023-06-04T00:31:31.368Z,9.90
2023-06-04T00:32:33.769Z,9.90
2023-06-04T00:33:36.716Z,9.90
2023-06-04T00:34:40.393Z,9.90
2023-06-04T00:35:42.942Z,10.00
2023-06-04T00:36:45.150Z,10.00
2023-06-04T00:37:47.405Z,9.90
2023-06-04T00:38:49.626Z,10.00
2023-06-04T00:39:52.063Z,9.90
2023-06-04T00:40:54.361Z,9.90
2023-06-04T00:41:56.712Z,10.00
2023-06-04T00:42:58.937Z,10.00
2023-06-04T00:44:03.146Z,10.00
2023-06-04T00:45:08.895Z,10.00
2023-06-04T00:46:19.359Z,10.00
2023-06-04T00:47:22.600Z,10.00
2023-06-04T00:48:28.484Z,10.00
2023-06-04T00:49:31.094Z,10.00
2023-06-04T00:50:36.955Z,10.00
2023-06-04T00:51:39.247Z,10.00
2023-06-04T00:52:41.649Z,10.00
2023-06-04T00:53:44.061Z,10.00
2023-06-04T00:54:46.666Z,10.00
2023-06-04T00:55:48.926Z,10.10
2023-06-04T00:56:51.334Z,10.00
2023-06-04T00:57:53.780Z,10.10
2023-06-04T00:58:56.665Z,10.00
2023-06-04T00:59:59.070Z,10.00
2023-06-04T01:01:05.863Z,10.10
2023-06-04T01:02:12.312Z,10.10
2023-06-04T01:03:18.832Z,10.10
2023-06-04T01:04:27.043Z,10.10
2023-06-04T01:05:38.954Z,10.10
2023-06-04T01:06:45.138Z,10.10
2023-06-04T01:07:48.303Z,10.10
2023-06-04T01:08:55.716Z,10.10
2023-06-04T01:09:58.436Z,10.10
2023-06-04T01:11:00.708Z,10.10
2023-06-04T01:12:06.434Z,10.10
2023-06-04T01:13:09.851Z,10.10
2023-06-04T01:14:15.205Z,10.10
2023-06-04T01:15:17.450Z,10.10
2023-06-04T01:16:19.961Z,10.10
2023-06-04T01:17:30.269Z,10.10
2023-06-04T01:18:37.532Z,10.10
2023-06-04T01:20:00.912Z,10.10
2023-06-04T01:21:09.160Z,10.10
2023-06-04T01:22:24.586Z,10.10
2023-06-04T01:23:35.650Z,10.10
2023-06-04T01:24:42.588Z,10.10
2023-06-04T01:25:46.590Z,10.10
2023-06-04T01:26:51.185Z,10.20
2023-06-04T01:27:56.818Z,10.10
2023-06-04T01:29:00.081Z,10.20
2023-06-04T01:30:02.801Z,10.20
2023-06-04T01:31:08.995Z,10.20
2023-06-04T01:33:15.123Z,10.20
2023-06-04T01:34:17.392Z,10.20
2023-06-04T01:35:19.713Z,10.20
2023-06-04T01:36:24.041Z,10.20
2023-06-04T01:37:27.470Z,10.20
2023-06-04T01:38:30.003Z,10.20
2023-06-04T01:39:32.248Z,10.20
2023-06-04T01:40:34.734Z,10.20
2023-06-04T01:41:37.098Z,10.20
2023-06-04T01:42:39.482Z,10.20
2023-06-04T01:43:41.752Z,10.20
2023-06-04T01:44:44.046Z,10.20
2023-06-04T01:45:46.577Z,10.20
2023-06-04T01:46:48.874Z,10.20
2023-06-04T01:47:52.285Z,10.20
2023-06-04T01:48:54.527Z,10.20
2023-06-04T01:49:56.758Z,10.20
2023-06-04T01:50:59.103Z,10.20
2023-06-04T01:52:02.762Z,10.20
2023-06-04T01:53:05.003Z,10.20
2023-06-04T01:54:07.277Z,10.20
2023-06-04T01:55:13.287Z,10.20
2023-06-04T01:56:15.614Z,10.20
2023-06-04T01:57:17.825Z,10.20
2023-06-04T01:58:24.438Z,10.20
2023-06-04T01:59:26.664Z,10.20
2023-06-04T02:00:29.188Z,10.30
2023-06-04T02:01:31.476Z,10.20
2023-06-04T02:02:33.998Z,10.30
2023-06-04T02:03:42.216Z,10.30
2023-06-04T02:04:47.977Z,10.30
2023-06-04T02:05:50.968Z,10.30
2023-06-04T02:06:53.182Z,10.30
2023-06-04T02:07:58.479Z,10.30
2023-06-04T02:09:01.985Z,10.30
2023-06-04T02:10:04.444Z,10.30
2023-06-04T02:11:07.252Z,10.30
2023-06-04T02:12:09.924Z,10.30
2023-06-04T02:13:12.137Z,10.40
2023-06-04T02:14:14.385Z,10.40
2023-06-04T02:15:16.587Z,10.40
2023-06-04T02:16:18.911Z,10.40
2023-06-04T02:17:21.700Z,10.40
2023-06-04T02:18:24.019Z,10.40
2023-06-04T02:19:29.784Z,10.40
2023-06-04T02:20:32.156Z,10.40
2023-06-04T02:21:34.378Z,10.40
2023-06-04T02:22:36.698Z,10.40
2023-06-04T02:23:40.968Z,10.40
2023-06-04T02:24:43.528Z,10.50
2023-06-04T02:25:46.299Z,10.50
2023-06-04T02:26:48.651Z,10.50
2023-06-04T02:27:50.967Z,10.50
2023-06-04T02:28:53.141Z,10.50
2023-06-04T02:29:55.416Z,10.50
2023-06-04T02:30:57.714Z,10.50
2023-06-04T02:32:00.042Z,10.60
2023-06-04T02:33:02.420Z,10.60
2023-06-04T02:34:04.890Z,10.60
2023-06-04T02:35:08.419Z,10.60
2023-06-04T02:36:10.798Z,10.60
2023-06-04T02:37:13.068Z,10.60
2023-06-04T02:38:15.502Z,10.60
2023-06-04T02:39:20.318Z,10.60
2023-06-04T02:40:23.055Z,10.70
2023-06-04T02:41:26.814Z,10.70
2023-06-04T02:42:29.058Z,10.70
2023-06-04T02:43:31.258Z,10.70
2023-06-04T02:44:33.491Z,10.70
2023-06-04T02:45:35.685Z,10.70
2023-06-04T02:46:38.629Z,10.70
2023-06-04T02:47:41.009Z,10.70
2023-06-04T02:48:43.239Z,10.70
2023-06-04T02:49:46.651Z,10.70
2023-06-04T02:50:48.765Z,10.70
2023-06-04T02:51:51.087Z,10.70
2023-06-04T02:52:53.344Z,10.80
2023-06-04T02:53:55.573Z,10.80
2023-06-04T02:54:59.183Z,10.80
2023-06-04T02:56:01.274Z,10.80
2023-06-04T02:57:03.460Z,10.80
2023-06-04T02:58:05.645Z,10.80
2023-06-04T02:59:11.563Z,10.80
2023-06-04T03:00:17.425Z,10.80
2023-06-04T03:01:21.179Z,10.80
2023-06-04T03:02:23.534Z,10.80
2023-06-04T03:03:25.805Z,10.80
2023-06-04T03:04:35.036Z,10.80
2023-06-04T03:05:38.057Z,10.80
2023-06-04T03:06:40.280Z,10.80
2023-06-04T03:07:44.844Z,10.80
2023-06-04T03:08:47.644Z,10.80
2023-06-04T03:09:49.902Z,10.80
2023-06-04T03:10:53.811Z,10.80
2023-06-04T03:11:56.460Z,10.80
2023-06-04T03:12:58.742Z,10.80
2023-06-04T03:14:01.350Z,10.80
2023-06-04T03:15:04.298Z,10.80
2023-06-04T03:16:10.978Z,10.80
2023-06-04T03:17:13.866Z,10.80
2023-06-04T03:18:16.200Z,10.80
2023-06-04T03:19:18.354Z,10.80
2023-06-04T03:20:20.761Z,10.90
2023-06-04T03:21:23.176Z,10.90
2023-06-04T03:22:25.762Z,10.90
2023-06-04T03:23:27.976Z,10.90
2023-06-04T03:24:30.405Z,10.90
2023-06-04T03:25:32.621Z,10.90
2023-06-04T03:26:36.259Z,10.90
2023-06-04T03:27:38.434Z,10.90
2023-06-04T03:28:41.992Z,10.90
2023-06-04T03:29:44.271Z,10.90
2023-06-04T03:30:47.061Z,10.90
2023-06-04T03:31:49.436Z,10.90
2023-06-04T03:32:51.645Z,10.90
2023-06-04T03:33:54.393Z,10.90
2023-06-04T03:34:56.657Z,10.90
2023-06-04T03:36:00.122Z,10.90
2023-06-04T03:37:02.406Z,10.90
2023-06-04T03:38:04.846Z,10.90
2023-06-04T03:39:07.187Z,10.90
2023-06-04T03:40:10.429Z,10.90
2023-06-04T03:41:12.649Z,10.90
2023-06-04T03:42:16.382Z,10.90
2023-06-04T03:43:18.683Z,10.90
2023-06-04T03:44:22.469Z,10.90
2023-06-04T03:45:24.693Z,11.00
2023-06-04T03:46:27.869Z,10.90
2023-06-04T03:47:30.540Z,10.90
2023-06-04T03:48:32.809Z,11.00
2023-06-04T03:49:35.505Z,11.00
2023-06-04T03:50:38.041Z,11.00
2023-06-04T03:51:40.685Z,11.00
2023-06-04T03:52:42.904Z,11.10
2023-06-04T03:53:45.160Z,11.00
2023-06-04T03:54:47.344Z,11.00
2023-06-04T03:55:49.518Z,11.10
2023-06-04T03:56:51.723Z,11.10
2023-06-04T03:57:55.621Z,11.10
2023-06-04T03:58:57.990Z,11.10
2023-06-04T04:00:00.330Z,11.10
2023-06-04T04:01:02.918Z,11.20
2023-06-04T04:02:06.476Z,11.20
2023-06-04T04:03:10.951Z,11.20
2023-06-04T04:04:13.446Z,11.20
2023-06-04T04:05:17.354Z,11.30
2023-06-04T04:06:20.786Z,11.30
2023-06-04T04:07:23.911Z,11.30
2023-06-04T04:08:26.997Z,11.30
2023-06-04T04:09:29.370Z,11.30
2023-06-04T04:10:31.573Z,11.30
2023-06-04T04:11:34.201Z,11.30
2023-06-04T04:12:36.420Z,11.30
2023-06-04T04:13:40.427Z,11.30
2023-06-04T04:14:42.656Z,11.30
2023-06-04T04:15:44.997Z,11.40
2023-06-04T04:16:47.837Z,11.40
2023-06-04T04:17:50.190Z,11.30
2023-06-04T04:18:52.449Z,11.40
2023-06-04T04:19:54.693Z,11.30
2023-06-04T04:20:57.069Z,11.30
2023-06-04T04:21:59.326Z,11.40
2023-06-04T04:23:01.532Z,11.30
2023-06-04T04:24:04.047Z,11.40
2023-06-04T04:25:08.903Z,11.40
2023-06-04T04:26:17.644Z,11.40
2023-06-04T04:27:19.881Z,11.40
2023-06-04T04:28:23.015Z,11.40
2023-06-04T04:29:26.944Z,11.40
2023-06-04T04:30:29.700Z,11.30
2023-06-04T04:31:32.016Z,11.30
2023-06-04T04:32:34.354Z,11.30
2023-06-04T04:33:40.552Z,11.30
2023-06-04T04:34:55.965Z,11.40
2023-06-04T04:36:00.391Z,11.40
2023-06-04T04:37:04.336Z,11.40
2023-06-04T04:38:06.921Z,11.40
2023-06-04T04:39:09.207Z,11.50
2023-06-04T04:40:13.337Z,11.50
2023-06-04T04:41:15.634Z,11.50
2023-06-04T04:42:17.862Z,11.50
2023-06-04T04:43:29.740Z,11.50
2023-06-04T04:44:33.284Z,11.50
2023-06-04T04:45:35.953Z,11.50
2023-06-04T04:46:38.174Z,11.60
2023-06-04T04:47:40.759Z,11.60
2023-06-04T04:48:43.583Z,11.60
2023-06-04T04:49:47.544Z,11.60
2023-06-04T04:50:52.699Z,11.60
2023-06-04T04:51:55.314Z,11.60
2023-06-04T04:52:57.543Z,11.60
2023-06-04T04:54:01.578Z,11.60
2023-06-04T04:55:04.340Z,11.60
2023-06-04T04:56:08.042Z,11.60
2023-06-04T04:57:13.769Z,11.60
2023-06-04T04:58:17.098Z,11.60
2023-06-04T04:59:19.493Z,11.60
2023-06-04T05:00:23.069Z,11.60
2023-06-04T05:01:26.801Z,11.70
2023-06-04T05:02:29.084Z,11.70
2023-06-04T05:03:31.292Z,11.70
2023-06-04T05:04:33.685Z,11.70
2023-06-04T05:05:37.253Z,11.70
2023-06-04T05:06:39.645Z,11.70
2023-06-04T05:07:41.900Z,11.70
2023-06-04T05:08:44.259Z,11.80
2023-06-04T05:09:46.838Z,11.80
2023-06-04T05:10:49.841Z,11.80
2023-06-04T05:11:52.538Z,11.90
2023-06-04T05:12:55.529Z,11.90
2023-06-04T05:13:57.758Z,11.90
2023-06-04T05:15:00.077Z,11.90
2023-06-04T05:16:08.105Z,11.90
2023-06-04T05:17:11.835Z,11.90
2023-06-04T05:18:14.187Z,11.90
2023-06-04T05:19:17.322Z,11.90
2023-06-04T05:20:20.189Z,11.90
2023-06-04T05:21:22.878Z,12.00
2023-06-04T05:22:30.093Z,12.00
2023-06-04T05:23:33.624Z,12.00
2023-06-04T05:24:36.158Z,12.00
2023-06-04T05:25:38.487Z,12.00
2023-06-04T05:26:40.982Z,12.10
2023-06-04T05:27:43.293Z,12.10
2023-06-04T05:28:45.638Z,12.10
2023-06-04T05:29:47.810Z,12.10
2023-06-04T05:30:50.069Z,12.20
2023-06-04T05:31:54.545Z,12.20
2023-06-04T05:32:56.890Z,12.30
2023-06-04T05:34:00.703Z,12.30
2023-06-04T05:35:05.782Z,12.30
2023-06-04T05:36:08.158Z,12.40
2023-06-04T05:37:12.490Z,12.50
2023-06-04T05:38:19.645Z,12.50
2023-06-04T05:39:25.066Z,12.60
2023-06-04T05:40:27.298Z,12.60
2023-06-04T05:41:29.586Z,12.60
2023-06-04T05:42:31.866Z,12.70
2023-06-04T05:43:34.158Z,12.70
2023-06-04T05:44:36.530Z,12.70
2023-06-04T05:45:38.848Z,12.70
2023-06-04T05:46:41.659Z,12.80
2023-06-04T05:47:45.292Z,12.80
2023-06-04T05:48:47.530Z,12.90
2023-06-04T05:49:49.923Z,12.90
2023-06-04T05:50:52.076Z,13.00
2023-06-04T05:51:54.344Z,13.00
2023-06-04T05:52:57.720Z,13.10
2023-06-04T05:53:59.949Z,13.10
2023-06-04T05:55:02.273Z,13.10
2023-06-04T05:56:04.653Z,13.00
2023-06-04T05:57:07.452Z,13.10
2023-06-04T05:58:09.735Z,13.10
2023-06-04T05:59:12.060Z,13.10
2023-06-04T06:00:14.846Z,13.10
2023-06-04T06:01:17.418Z,13.20
2023-06-04T06:02:19.719Z,13.20
2023-06-04T06:03:23.558Z,13.20
2023-06-04T06:04:26.893Z,13.20
2023-06-04T06:05:29.221Z,13.20
2023-06-04T06:06:31.521Z,13.30
2023-06-04T06:07:33.871Z,13.30
2023-06-04T06:08:36.139Z,13.20
2023-06-04T06:09:38.384Z,13.20
2023-06-04T06:10:40.625Z,13.20
2023-06-04T06:11:43.077Z,13.20
2023-06-04T06:12:45.372Z,13.20
2023-06-04T06:13:47.604Z,13.20
2023-06-04T06:14:50.278Z,13.20
2023-06-04T06:15:54.271Z,13.30
2023-06-04T06:16:56.540Z,13.30
2023-06-04T06:17:58.866Z,13.30
2023-06-04T06:19:03.132Z,13.30
2023-06-04T06:20:09.297Z,13.40
2023-06-04T06:21:11.941Z,13.40
2023-06-04T06:22:14.326Z,13.40
2023-06-04T06:23:17.876Z,13.40
2023-06-04T06:24:20.143Z,13.40
2023-06-04T06:25:22.414Z,13.50
2023-06-04T06:26:26.434Z,13.50
2023-06-04T06:27:28.919Z,13.50
2023-06-04T06:28:31.162Z,13.50
2023-06-04T06:29:33.675Z,13.50
2023-06-04T06:30:36.059Z,13.60
2023-06-04T06:31:38.658Z,13.50
2023-06-04T06:32:41.291Z,13.50
2023-06-04T06:33:43.635Z,13.50
2023-06-04T06:34:47.192Z,13.50
2023-06-04T06:35:49.906Z,13.50
2023-06-04T06:36:52.282Z,13.50
2023-06-04T06:37:55.891Z,13.50
2023-06-04T06:38:58.224Z,13.60
2023-06-04T06:40:00.609Z,13.60
2023-06-04T06:41:03.037Z,13.70
2023-06-04T06:42:05.949Z,13.70
2023-06-04T06:43:08.367Z,13.80
2023-06-04T06:44:10.885Z,13.80
2023-06-04T06:45:13.279Z,13.70
2023-06-04T06:46:15.924Z,13.70
2023-06-04T06:47:18.205Z,13.60
2023-06-04T06:48:20.549Z,13.60
2023-06-04T06:49:22.995Z,13.70
2023-06-04T06:50:27.093Z,13.70
2023-06-04T06:51:29.380Z,13.70
2023-06-04T06:52:34.446Z,13.80
2023-06-04T06:53:36.976Z,13.80
2023-06-04T06:54:39.242Z,13.70
2023-06-04T06:55:41.457Z,13.80
2023-06-04T06:56:43.697Z,13.80
2023-06-04T06:57:46.298Z,13.80
2023-06-04T06:58:48.673Z,13.80
2023-06-04T06:59:53.311Z,13.90
2023-06-04T07:00:57.704Z,13.90
2023-06-04T07:02:00.150Z,13.90
2023-06-04T07:03:02.600Z,13.80
2023-06-04T07:04:05.006Z,13.90
2023-06-04T07:05:08.251Z,13.90
2023-06-04T07:06:11.990Z,13.90
2023-06-04T07:07:16.379Z,13.90
2023-06-04T07:08:20.068Z,13.90
2023-06-04T07:09:22.537Z,13.90
2023-06-04T07:10:25.819Z,14.00
2023-06-04T07:11:28.286Z,14.00
2023-06-04T07:12:30.538Z,14.00
2023-06-04T07:13:42.336Z,14.00
2023-06-04T07:14:44.726Z,14.00
2023-06-04T07:15:47.985Z,14.10
2023-06-04T07:16:50.216Z,14.20
2023-06-04T07:17:52.526Z,14.10
2023-06-04T07:18:54.951Z,14.00
2023-06-04T07:19:57.231Z,14.00
2023-06-04T07:20:59.500Z,13.90
2023-06-04T07:22:03.209Z,14.00
2023-06-04T07:23:05.973Z,14.10
2023-06-04T07:24:08.292Z,14.20
2023-06-04T07:25:10.898Z,14.10
2023-06-04T07:26:13.389Z,14.10
2023-06-04T07:27:16.415Z,14.00
2023-06-04T07:28:18.674Z,13.90
2023-06-04T07:29:21.043Z,13.90
2023-06-04T07:30:23.296Z,14.00
2023-06-04T07:31:25.613Z,14.00
2023-06-04T07:32:28.137Z,14.10
2023-06-04T07:33:30.516Z,14.10
2023-06-04T07:34:32.784Z,14.00
2023-06-04T07:35:35.091Z,14.00
2023-06-04T07:36:37.812Z,14.00
2023-06-04T07:37:42.530Z,14.00
2023-06-04T07:38:45.108Z,14.00
2023-06-04T07:39:47.251Z,14.00
2023-06-04T07:40:49.838Z,14.00
2023-06-04T07:41:52.192Z,14.00
2023-06-04T07:42:54.585Z,14.00
2023-06-04T07:43:57.267Z,14.00
2023-06-04T07:44:59.945Z,14.00
2023-06-04T07:46:02.568Z,13.90
2023-06-04T07:47:05.995Z,13.90
2023-06-04T07:48:10.220Z,14.00
2023-06-04T07:49:13.051Z,14.00
2023-06-04T07:50:15.306Z,14.00
2023-06-04T07:51:17.593Z,14.10
2023-06-04T07:52:19.880Z,14.10
2023-06-04T07:53:23.470Z,14.10
2023-06-04T07:54:26.091Z,14.10
2023-06-04T07:55:28.458Z,14.10
2023-06-04T07:56:30.678Z,14.00
2023-06-04T07:57:33.355Z,14.10
2023-06-04T07:58:35.627Z,14.10
2023-06-04T07:59:39.137Z,14.10
2023-06-04T08:00:41.320Z,14.20
2023-06-04T08:01:43.528Z,14.20
2023-06-04T08:02:46.169Z,14.30
2023-06-04T08:03:48.689Z,14.30
2023-06-04T08:04:51.142Z,14.30
2023-06-04T08:05:53.314Z,14.40
2023-06-04T08:06:56.297Z,14.30
2023-06-04T08:07:58.457Z,14.30
2023-06-04T08:09:02.499Z,14.40
2023-06-04T08:10:05.117Z,14.50
2023-06-04T08:11:07.526Z,14.50
2023-06-04T08:12:11.078Z,14.50
2023-06-04T08:13:13.435Z,14.70
2023-06-04T08:14:15.855Z,14.70
2023-06-04T08:15:18.310Z,14.90
2023-06-04T08:16:20.656Z,14.90
2023-06-04T08:17:22.963Z,15.00
2023-06-04T08:18:25.161Z,15.10
2023-06-04T08:19:27.452Z,15.20
2023-06-04T08:20:29.741Z,15.20
2023-06-04T08:21:31.996Z,15.20
2023-06-04T08:22:34.530Z,15.10
2023-06-04T08:23:36.743Z,15.10
2023-06-04T08:24:41.041Z,15.10
2023-06-04T08:25:43.255Z,15.20
2023-06-04T08:26:45.881Z,15.30
2023-06-04T08:27:48.342Z,15.30
2023-06-04T08:28:50.938Z,15.30
2023-06-04T08:29:53.359Z,15.30
2023-06-04T08:30:55.591Z,15.40
2023-06-04T08:31:57.850Z,15.30
2023-06-04T08:33:00.618Z,15.30
2023-06-04T08:34:06.408Z,15.20
2023-06-04T08:35:09.405Z,15.30
2023-06-04T08:36:11.615Z,15.30
2023-06-04T08:37:14.022Z,15.40
2023-06-04T08:38:16.557Z,15.40
2023-06-04T08:39:19.363Z,15.40
2023-06-04T08:40:23.775Z,15.30
2023-06-04T08:41:29.608Z,15.30
2023-06-04T08:42:35.945Z,15.20
2023-06-04T08:43:41.573Z,15.20
2023-06-04T08:44:45.175Z,15.10
2023-06-04T08:45:52.503Z,15.00
2023-06-04T08:47:04.142Z,15.10
2023-06-04T08:48:12.247Z,15.10
2023-06-04T08:49:16.338Z,15.10
2023-06-04T08:50:20.968Z,15.10
2023-06-04T08:51:23.636Z,15.10
2023-06-04T08:52:26.872Z,15.10
2023-06-04T08:53:31.772Z,15.10
2023-06-04T08:54:34.389Z,15.10
2023-06-04T08:55:39.084Z,15.20
2023-06-04T08:56:42.051Z,15.20
2023-06-04T08:57:44.627Z,15.20
2023-06-04T08:58:49.281Z,15.20
2023-06-04T08:59:52.792Z,15.10
2023-06-04T09:00:55.272Z,15.00
2023-06-04T09:01:57.961Z,14.90
2023-06-04T09:03:02.813Z,14.90
2023-06-04T09:04:12.512Z,14.90
2023-06-04T09:05:21.555Z,14.90
2023-06-04T09:06:26.567Z,15.00
2023-06-04T09:07:28.993Z,15.10
2023-06-04T09:08:34.582Z,15.10
2023-06-04T09:09:39.916Z,15.20
2023-06-04T09:10:47.537Z,15.20
2023-06-04T09:11:53.836Z,15.20
2023-06-04T09:13:02.389Z,15.30
2023-06-04T09:14:09.399Z,15.10
2023-06-04T09:15:12.313Z,15.00
2023-06-04T09:16:14.746Z,15.00
2023-06-04T09:17:17.222Z,15.00
2023-06-04T09:18:19.495Z,14.90
2023-06-04T09:19:23.900Z,15.00
2023-06-04T09:20:26.848Z,14.90
2023-06-04T09:21:30.215Z,14.90
2023-06-04T09:22:35.970Z,14.90
2023-06-04T09:23:44.945Z,14.90
2023-06-04T09:24:54.003Z,14.90
2023-06-04T09:25:57.762Z,14.90
2023-06-04T09:27:16.722Z,14.80
2023-06-04T09:28:19.667Z,14.80
2023-06-04T09:29:21.880Z,14.70
2023-06-04T09:30:24.662Z,14.60
2023-06-04T09:31:28.047Z,14.60
2023-06-04T09:32:31.786Z,14.60
2023-06-04T09:33:43.777Z,14.60
2023-06-04T09:34:46.577Z,14.60
2023-06-04T09:35:55.608Z,14.50
2023-06-04T09:36:58.528Z,14.40
2023-06-04T09:38:01.054Z,14.40
2023-06-04T09:39:04.257Z,14.30
2023-06-04T09:40:08.069Z,14.30
2023-06-04T09:41:15.067Z,14.30
2023-06-04T09:42:17.285Z,14.30
2023-06-04T09:43:24.689Z,14.20
2023-06-04T09:44:27.037Z,14.10
2023-06-04T09:45:32.952Z,14.10
2023-06-04T09:46:35.361Z,14.10
2023-06-04T09:47:41.593Z,14.10
2023-06-04T09:48:44.637Z,14.00
2023-06-04T09:49:47.873Z,14.00
2023-06-04T09:50:50.772Z,14.00
2023-06-04T09:51:53.150Z,13.90
2023-06-04T09:52:58.310Z,13.90
2023-06-04T09:54:02.198Z,13.90
2023-06-04T09:55:05.006Z,13.90
2023-06-04T09:56:08.343Z,13.90
2023-06-04T09:57:18.063Z,13.90
2023-06-04T09:58:20.488Z,13.90
2023-06-04T09:59:22.728Z,13.90
2023-06-04T10:00:25.398Z,13.80
2023-06-04T10:01:29.510Z,13.80
2023-06-04T10:02:32.079Z,13.90
2023-06-04T10:03:36.337Z,13.90
2023-06-04T10:04:41.746Z,14.00
2023-06-04T10:05:44.264Z,13.90
2023-06-04T10:06:46.899Z,13.90
2023-06-04T10:07:53.045Z,13.90
2023-06-04T10:08:59.781Z,13.90
2023-06-04T10:10:02.992Z,13.90
2023-06-04T10:11:07.554Z,13.90
2023-06-04T10:12:10.821Z,13.90
2023-06-04T10:13:18.796Z,13.90
2023-06-04T10:14:26.358Z,13.90
2023-06-04T10:15:29.665Z,14.00
2023-06-04T10:16:34.971Z,14.00
2023-06-04T10:17:37.819Z,14.00
2023-06-04T10:18:40.412Z,14.00
2023-06-04T10:19:45.152Z,14.00
2023-06-04T10:20:48.025Z,14.00
2023-06-04T10:21:50.492Z,14.00
2023-06-04T10:22:52.978Z,14.00
2023-06-04T10:23:55.987Z,14.10
2023-06-04T10:24:59.635Z,14.10
2023-06-04T10:26:02.393Z,14.10
2023-06-04T10:27:12.183Z,14.10
2023-06-04T10:28:16.520Z,14.10
2023-06-04T10:29:20.599Z,14.10
2023-06-04T10:30:22.821Z,14.10
2023-06-04T10:31:25.127Z,14.20
2023-06-04T10:32:29.418Z,14.20
2023-06-04T10:33:31.745Z,14.20
2023-06-04T10:34:34.853Z,14.20
2023-06-04T10:35:37.492Z,14.30
2023-06-04T10:36:44.940Z,14.40
2023-06-04T10:37:49.565Z,14.40
2023-06-04T10:38:56.116Z,14.50
2023-06-04T10:40:02.077Z,14.40
2023-06-04T10:41:14.537Z,14.40
2023-06-04T10:42:19.273Z,14.50
2023-06-04T10:43:22.943Z,14.50
2023-06-04T10:44:25.187Z,14.60
2023-06-04T10:45:31.219Z,14.70
2023-06-04T10:46:41.140Z,14.80
2023-06-04T10:47:45.031Z,14.80
2023-06-04T10:48:49.151Z,14.90
2023-06-04T10:49:52.186Z,14.90
2023-06-04T10:50:54.602Z,14.90
2023-06-04T10:52:04.737Z,15.00
2023-06-04T10:53:06.942Z,15.20
2023-06-04T10:54:09.246Z,15.20
2023-06-04T10:55:11.829Z,15.20
2023-06-04T10:56:14.072Z,15.20
2023-06-04T10:57:18.180Z,15.20
2023-06-04T10:58:21.741Z,15.20
2023-06-04T10:59:25.698Z,15.20
2023-06-04T11:00:37.523Z,15.10
2023-06-04T11:01:40.029Z,15.10
2023-06-04T11:02:55.106Z,15.10
2023-06-04T11:03:58.476Z,15.10
2023-06-04T11:05:07.116Z,15.10
2023-06-04T11:06:19.213Z,15.20
2023-06-04T11:07:21.624Z,15.20
2023-06-04T11:08:31.128Z,15.20
2023-06-04T11:09:34.850Z,15.20
2023-06-04T11:10:39.628Z,15.20
2023-06-04T11:11:41.844Z,15.10
2023-06-04T11:12:46.333Z,15.10
2023-06-04T11:13:48.518Z,15.00
2023-06-04T11:14:58.681Z,15.10
2023-06-04T11:16:01.096Z,15.10
2023-06-04T11:17:11.614Z,15.10
2023-06-04T11:18:17.088Z,15.20
2023-06-04T11:19:19.343Z,15.20
2023-06-04T11:20:22.812Z,15.10
2023-06-04T11:21:27.811Z,15.10
2023-06-04T11:22:30.949Z,15.20
2023-06-04T11:23:34.980Z,15.20
2023-06-04T11:24:37.592Z,15.10
2023-06-04T11:25:39.989Z,15.20
2023-06-04T11:26:48.046Z,15.20
2023-06-04T11:27:57.440Z,15.30
2023-06-04T11:29:00.048Z,15.30
2023-06-04T11:30:04.236Z,15.30
2023-06-04T11:31:07.522Z,15.30
2023-06-04T11:32:09.903Z,15.30
2023-06-04T11:33:12.133Z,15.30
2023-06-04T11:34:24.058Z,15.30
2023-06-04T11:35:26.496Z,15.30
2023-06-04T11:36:30.204Z,15.30
2023-06-04T11:37:34.477Z,15.30
2023-06-04T11:38:37.242Z,15.40
2023-06-04T11:39:41.457Z,15.40
2023-06-04T11:40:46.158Z,15.50
2023-06-04T11:41:50.197Z,15.40
2023-06-04T11:42:53.113Z,15.50
2023-06-04T11:43:56.341Z,15.50
2023-06-04T11:44:59.165Z,15.50
2023-06-04T11:46:07.085Z,15.50
2023-06-04T11:47:13.531Z,15.50
2023-06-04T11:48:16.726Z,15.50
2023-06-04T11:49:20.182Z,15.50
2023-06-04T11:50:23.464Z,15.50
2023-06-04T11:51:26.115Z,15.50
2023-06-04T11:52:29.372Z,15.40
2023-06-04T11:53:32.309Z,15.50
2023-06-04T11:54:39.374Z,15.50
2023-06-04T11:55:42.372Z,15.50
2023-06-04T11:56:47.831Z,15.50
2023-06-04T11:57:51.459Z,15.50
2023-06-04T11:58:55.341Z,15.60
2023-06-04T11:59:57.920Z,15.30
2023-06-04T12:01:02.424Z,14.90
2023-06-04T12:02:05.161Z,14.60
2023-06-04T12:03:07.821Z,14.40
2023-06-04T12:04:14.536Z,14.20
2023-06-04T12:05:20.100Z,14.10
2023-06-04T12:06:23.732Z,14.00
2023-06-04T12:07:26.523Z,13.80
2023-06-04T12:08:28.764Z,13.80
2023-06-04T12:09:36.003Z,13.70
2023-06-04T12:10:39.856Z,13.70
2023-06-04T12:11:42.837Z,13.60
2023-06-04T12:12:45.133Z,13.50
2023-06-04T12:13:47.491Z,13.50
2023-06-04T12:14:57.072Z,13.40
2023-06-04T12:15:59.390Z,13.30
2023-06-04T12:17:07.028Z,13.10
2023-06-04T12:18:10.820Z,13.00
2023-06-04T12:19:14.289Z,13.00
2023-06-04T12:20:16.790Z,13.00
2023-06-04T12:21:29.024Z,12.80
2023-06-04T12:22:32.126Z,12.80
2023-06-04T12:23:34.356Z,12.70
2023-06-04T12:24:48.441Z,12.70
2023-06-04T12:25:52.409Z,12.60
2023-06-04T12:27:03.937Z,12.50
2023-06-04T12:28:06.743Z,12.50
2023-06-04T12:29:11.549Z,12.40
2023-06-04T12:30:13.959Z,12.40
2023-06-04T12:31:18.102Z,12.40
2023-06-04T12:32:22.176Z,12.30
2023-06-04T12:33:24.584Z,12.30
2023-06-04T12:34:27.326Z,12.30
2023-06-04T12:35:29.525Z,12.30
2023-06-04T12:36:31.745Z,12.40
2023-06-04T12:37:33.944Z,12.40
2023-06-04T12:38:36.141Z,12.50
2023-06-04T12:39:38.515Z,12.50
2023-06-04T12:40:41.675Z,12.60
2023-06-04T12:41:46.902Z,13.00
2023-06-04T12:42:51.565Z,13.40
2023-06-04T12:43:53.905Z,13.90
2023-06-04T12:44:56.140Z,13.90
2023-06-04T12:45:58.414Z,13.90
2023-06-04T12:47:00.808Z,13.90
2023-06-04T12:48:04.926Z,13.70
2023-06-04T12:49:07.385Z,13.60
2023-06-04T12:50:10.252Z,13.40
2023-06-04T12:51:13.650Z,13.30
2023-06-04T12:52:17.500Z,13.10
2023-06-04T12:53:19.705Z,13.00
2023-06-04T12:54:21.884Z,12.90
2023-06-04T12:55:27.913Z,12.80
2023-06-04T12:56:30.653Z,12.80
2023-06-04T12:57:32.838Z,12.70
2023-06-04T12:58:35.084Z,12.60
2023-06-04T12:59:37.502Z,12.50
2023-06-04T13:00:39.771Z,12.40
2023-06-04T13:01:42.092Z,12.30
2023-06-04T13:02:44.517Z,12.20
2023-06-04T13:03:48.462Z,12.20
2023-06-04T13:04:54.226Z,12.10
2023-06-04T13:05:56.584Z,12.10
2023-06-04T13:07:00.536Z,12.00
2023-06-04T13:08:03.226Z,11.90
2023-06-04T13:09:10.036Z,11.90
2023-06-04T13:10:12.393Z,11.90
2023-06-04T13:11:14.844Z,11.80
2023-06-04T13:12:17.223Z,11.90
2023-06-04T13:13:19.958Z,11.90
2023-06-04T13:14:22.178Z,12.10
2023-06-04T13:15:24.392Z,12.30
2023-06-04T13:16:27.511Z,12.40
2023-06-04T13:17:29.837Z,12.50
2023-06-04T13:18:32.655Z,12.60
2023-06-04T13:19:36.802Z,12.60
2023-06-04T13:20:40.842Z,12.60
2023-06-04T13:21:43.172Z,12.50
2023-06-04T13:22:45.413Z,12.60
2023-06-04T13:23:50.237Z,12.90
2023-06-04T13:24:52.915Z,13.00
2023-06-04T13:25:55.254Z,13.00
2023-06-04T13:26:59.319Z,13.00
2023-06-04T13:28:02.191Z,13.00
2023-06-04T13:29:04.883Z,13.10
2023-06-04T13:30:08.229Z,13.10
2023-06-04T13:31:10.719Z,13.10
2023-06-04T13:32:13.345Z,13.20
2023-06-04T13:33:16.126Z,13.30
2023-06-04T13:34:27.834Z,13.40
2023-06-04T13:35:32.571Z,13.50
2023-06-04T13:36:34.807Z,14.00
2023-06-04T13:37:37.305Z,14.40
2023-06-04T13:38:39.620Z,15.20
2023-06-04T13:39:41.958Z,16.40
2023-06-04T13:40:44.527Z,17.20